sensor_id;sensor_type;location;lat;lon;timestamp;temperature;humidity
19947;DHT22;10135;50.702;7.276;2022-12-18T06:30:55;-2.80;60.60
19947;DHT22;10135;50.702;7.276;2022-12-18T06:32:56;-2.80;60.10
19947;DHT22;10135;50.702;7.276;2022-12-18T06:34:57;-2.80;60.00
19947;DHT22;10135;50.702;7.276;2022-12-18T06:36:57;-2.90;60.00
19947;DHT22;10135;50.702;7.276;2022-12-18T06:38:58;-2.90;60.10
19947;DHT22;10135;50.702;7.276;2022-12-18T06:40:59;-2.90;60.10
19947;DHT22;10135;50.702;7.276;2022-12-18T06:43:00;-2.80;60.10
19947;DHT22;10135;50.702;7.276;2022-12-18T06:45:01;-2.80;60.20
19947;DHT22;10135;50.702;7.276;2022-12-18T06:47:02;-2.90;60.10
19947;DHT22;10135;50.702;7.276;2022-12-18T06:49:03;-2.80;60.90
19947;DHT22;10135;50.702;7.276;2022-12-18T06:51:04;-2.80;60.20
19947;DHT22;10135;50.702;7.276;2022-12-18T06:53:05;-2.80;60.20
19947;DHT22;10135;50.702;7.276;2022-12-18T06:55:07;-2.90;60.20
19947;DHT22;10135;50.702;7.276;2022-12-18T06:57:08;-2.90;60.10
19947;DHT22;10135;50.702;7.276;2022-12-18T06:59:09;-2.90;60.10
19947;DHT22;10135;50.702;7.276;2022-12-18T07:01:11;-2.90;60.20
19947;DHT22;10135;50.702;7.276;2022-12-18T07:03:12;-3.00;60.10
19947;DHT22;10135;50.702;7.276;2022-12-18T07:05:13;-3.00;60.00
19947;DHT22;10135;50.702;7.276;2022-12-18T07:07:14;-3.00;60.10
19947;DHT22;10135;50.702;7.276;2022-12-18T07:09:14;-3.00;60.20
19947;DHT22;10135;50.702;7.276;2022-12-18T07:11:16;-2.90;60.20
19947;DHT22;10135;50.702;7.276;2022-12-18T07:13:17;-2.90;60.20
19947;DHT22;10135;50.702;7.276;2022-12-18T07:15:18;-2.90;60.20
19947;DHT22;10135;50.702;7.276;2022-12-18T07:17:19;-2.90;60.20
19947;DHT22;10135;50.702;7.276;2022-12-18T07:19:19;-2.90;60.20
19947;DHT22;10135;50.702;7.276;2022-12-18T07:21:21;-2.90;60.20
19947;DHT22;10135;50.702;7.276;2022-12-18T07:23:22;-2.90;60.20
19947;DHT22;10135;50.702;7.276;2022-12-18T07:25:23;-2.90;60.20
19947;DHT22;10135;50.702;7.276;2022-12-18T07:27:23;-2.90;60.60
19947;DHT22;10135;50.702;7.276;2022-12-18T07:29:24;-2.90;60.20
19947;DHT22;10135;50.702;7.276;2022-12-18T07:31:25;-2.90;60.20
19947;DHT22;10135;50.702;7.276;2022-12-18T07:33:26;-2.90;60.20
19947;DHT22;10135;50.702;7.276;2022-12-18T07:35:27;-2.90;60.20
19947;DHT22;10135;50.702;7.276;2022-12-18T07:37:28;-2.90;60.20
19947;DHT22;10135;50.702;7.276;2022-12-18T07:39:28;-2.90;60.20
19947;DHT22;10135;50.702;7.276;2022-12-18T07:41:29;-2.90;60.20
19947;DHT22;10135;50.702;7.276;2022-12-18T07:43:29;-2.90;60.20
19947;DHT22;10135;50.702;7.276;2022-12-18T07:45:31;-2.90;60.20
19947;DHT22;10135;50.702;7.276;2022-12-18T07:47:34;-2.90;60.20
19947;DHT22;10135;50.702;7.276;2022-12-18T07:49:36;-2.90;60.20
19947;DHT22;10135;50.702;7.276;2022-12-18T07:51:36;-2.90;60.20
19947;DHT22;10135;50.702;7.276;2022-12-18T07:53:37;-2.90;60.20
19947;DHT22;10135;50.702;7.276;2022-12-18T07:55:38;-2.90;60.20
19947;DHT22;10135;50.702;7.276;2022-12-18T07:57:39;-2.90;60.20
19947;DHT22;10135;50.702;7.276;2022-12-18T07:59:39;-2.80;60.30
19947;DHT22;10135;50.702;7.276;2022-12-18T08:01:40;-2.80;60.40
19947;DHT22;10135;50.702;7.276;2022-12-18T08:03:41;-2.80;60.40
19947;DHT22;10135;50.702;7.276;2022-12-18T08:05:41;-2.80;60.40
19947;DHT22;10135;50.702;7.276;2022-12-18T08:07:42;-2.70;60.50
19947;DHT22;10135;50.702;7.276;2022-12-18T08:09:42;-2.60;60.70
19947;DHT22;10135;50.702;7.276;2022-12-18T08:11:43;-2.50;60.90
19947;DHT22;10135;50.702;7.276;2022-12-18T08:13:44;-2.40;61.10
19947;DHT22;10135;50.702;7.276;2022-12-18T08:15:45;-2.20;61.40
19947;DHT22;10135;50.702;7.276;2022-12-18T08:17:45;-2.00;61.60
19947;DHT22;10135;50.702;7.276;2022-12-18T08:19:46;-1.80;61.90
19947;DHT22;10135;50.702;7.276;2022-12-18T08:21:46;-1.60;61.80
19947;DHT22;10135;50.702;7.276;2022-12-18T08:23:48;-1.30;61.80
19947;DHT22;10135;50.702;7.276;2022-12-18T08:25:49;-1.10;61.70
19947;DHT22;10135;50.702;7.276;2022-12-18T08:27:51;-1.00;61.70
19947;DHT22;10135;50.702;7.276;2022-12-18T08:29:51;-0.70;61.70
19947;DHT22;10135;50.702;7.276;2022-12-18T08:31:52;-0.50;61.70
19947;DHT22;10135;50.702;7.276;2022-12-18T08:33:53;-0.30;61.70
19947;DHT22;10135;50.702;7.276;2022-12-18T08:35:55;-0.10;61.50
19947;DHT22;10135;50.702;7.276;2022-12-18T08:37:55;0.20;61.40
19947;DHT22;10135;50.702;7.276;2022-12-18T08:39:56;0.40;61.30
19947;DHT22;10135;50.702;7.276;2022-12-18T08:41:56;0.60;61.20
19947;DHT22;10135;50.702;7.276;2022-12-18T08:44:15;0.70;61.10
19947;DHT22;10135;50.702;7.276;2022-12-18T08:46:40;0.90;61.00
19947;DHT22;10135;50.702;7.276;2022-12-18T08:48:43;1.10;60.70
19947;DHT22;10135;50.702;7.276;2022-12-18T08:50:43;1.30;60.80
19947;DHT22;10135;50.702;7.276;2022-12-18T08:52:53;1.40;60.70
19947;DHT22;10135;50.702;7.276;2022-12-18T08:54:53;1.50;60.40
19947;DHT22;10135;50.702;7.276;2022-12-18T08:56:54;1.60;60.20
19947;DHT22;10135;50.702;7.276;2022-12-18T08:58:55;1.60;60.00
19947;DHT22;10135;50.702;7.276;2022-12-18T09:01:04;1.60;59.80
19947;DHT22;10135;50.702;7.276;2022-12-18T09:03:12;1.70;59.70
19947;DHT22;10135;50.702;7.276;2022-12-18T09:05:15;1.70;59.60
19947;DHT22;10135;50.702;7.276;2022-12-18T09:07:15;1.80;59.80
19947;DHT22;10135;50.702;7.276;2022-12-18T09:09:16;1.90;59.80
19947;DHT22;10135;50.702;7.276;2022-12-18T09:11:23;1.80;59.60
19947;DHT22;10135;50.702;7.276;2022-12-18T09:13:25;1.80;59.30
19947;DHT22;10135;50.702;7.276;2022-12-18T09:15:25;1.80;59.40
19947;DHT22;10135;50.702;7.276;2022-12-18T09:17:26;1.80;59.30
19947;DHT22;10135;50.702;7.276;2022-12-18T09:19:27;1.80;59.30
19947;DHT22;10135;50.702;7.276;2022-12-18T09:21:30;1.80;59.20
19947;DHT22;10135;50.702;7.276;2022-12-18T09:23:33;1.70;59.10
19947;DHT22;10135;50.702;7.276;2022-12-18T09:25:34;1.60;59.00
19947;DHT22;10135;50.702;7.276;2022-12-18T09:27:36;1.60;59.10
19947;DHT22;10135;50.702;7.276;2022-12-18T09:29:36;1.60;59.00
19947;DHT22;10135;50.702;7.276;2022-12-18T09:31:38;1.50;59.00
19947;DHT22;10135;50.702;7.276;2022-12-18T09:33:39;1.40;59.00
19947;DHT22;10135;50.702;7.276;2022-12-18T09:35:41;1.40;59.00
19947;DHT22;10135;50.702;7.276;2022-12-18T09:37:43;1.30;58.90
19947;DHT22;10135;50.702;7.276;2022-12-18T09:39:44;1.30;59.00
19947;DHT22;10135;50.702;7.276;2022-12-18T09:41:51;1.20;58.90
19947;DHT22;10135;50.702;7.276;2022-12-18T09:43:57;1.10;58.80
19947;DHT22;10135;50.702;7.276;2022-12-18T09:46:07;1.10;59.00
19947;DHT22;10135;50.702;7.276;2022-12-18T09:48:18;1.00;59.10
19947;DHT22;10135;50.702;7.276;2022-12-18T09:50:31;1.00;59.10
19947;DHT22;10135;50.702;7.276;2022-12-18T09:52:44;1.00;59.10
19947;DHT22;10135;50.702;7.276;2022-12-18T09:54:58;1.00;59.00
19947;DHT22;10135;50.702;7.276;2022-12-18T09:57:02;1.00;59.10
19947;DHT22;10135;50.702;7.276;2022-12-18T09:59:04;0.90;59.10
19947;DHT22;10135;50.702;7.276;2022-12-18T10:01:15;0.90;59.20
19947;DHT22;10135;50.702;7.276;2022-12-18T10:03:19;0.90;59.10
19947;DHT22;10135;50.702;7.276;2022-12-18T10:05:43;0.80;59.20
19947;DHT22;10135;50.702;7.276;2022-12-18T10:08:05;0.90;59.10
19947;DHT22;10135;50.702;7.276;2022-12-18T10:13:20;0.90;59.20
19947;DHT22;10135;50.702;7.276;2022-12-18T10:16:14;0.80;59.00
19947;DHT22;10135;50.702;7.276;2022-12-18T10:21:21;0.80;59.10
19947;DHT22;10135;50.702;7.276;2022-12-18T10:23:57;0.80;59.20
19947;DHT22;10135;50.702;7.276;2022-12-18T10:26:12;0.70;59.20
19947;DHT22;10135;50.702;7.276;2022-12-18T10:28:15;0.70;59.20
19947;DHT22;10135;50.702;7.276;2022-12-18T10:30:20;0.70;59.20
19947;DHT22;10135;50.702;7.276;2022-12-18T10:32:25;0.70;59.30
19947;DHT22;10135;50.702;7.276;2022-12-18T10:34:27;0.70;59.30
19947;DHT22;10135;50.702;7.276;2022-12-18T10:36:27;0.70;59.30
19947;DHT22;10135;50.702;7.276;2022-12-18T10:38:32;0.70;59.30
19947;DHT22;10135;50.702;7.276;2022-12-18T10:43:11;0.80;59.30
19947;DHT22;10135;50.702;7.276;2022-12-18T10:45:16;0.80;59.20
19947;DHT22;10135;50.702;7.276;2022-12-18T10:47:20;0.80;59.40
19947;DHT22;10135;50.702;7.276;2022-12-18T10:49:24;0.80;59.50
19947;DHT22;10135;50.702;7.276;2022-12-18T10:51:34;0.80;59.40
19947;DHT22;10135;50.702;7.276;2022-12-18T10:53:37;0.90;59.40
19947;DHT22;10135;50.702;7.276;2022-12-18T10:55:44;0.90;59.40
19947;DHT22;10135;50.702;7.276;2022-12-18T10:57:46;0.90;59.40
19947;DHT22;10135;50.702;7.276;2022-12-18T10:59:54;0.90;59.40
19947;DHT22;10135;50.702;7.276;2022-12-18T11:01:57;0.90;59.30
19947;DHT22;10135;50.702;7.276;2022-12-18T11:04:02;0.90;59.30
19947;DHT22;10135;50.702;7.276;2022-12-18T11:06:20;1.00;59.30
19947;DHT22;10135;50.702;7.276;2022-12-18T11:08:24;1.00;59.20
19947;DHT22;10135;50.702;7.276;2022-12-18T11:10:36;0.90;59.30
19947;DHT22;10135;50.702;7.276;2022-12-18T11:12:40;0.90;59.20
19947;DHT22;10135;50.702;7.276;2022-12-18T11:14:51;0.90;59.30
19947;DHT22;10135;50.702;7.276;2022-12-18T11:16:54;0.90;59.10
19947;DHT22;10135;50.702;7.276;2022-12-18T11:19:33;0.90;59.30
19947;DHT22;10135;50.702;7.276;2022-12-18T11:21:39;0.90;59.20
19947;DHT22;10135;50.702;7.276;2022-12-18T11:23:49;0.90;59.20
19947;DHT22;10135;50.702;7.276;2022-12-18T11:26:04;0.90;59.20
19947;DHT22;10135;50.702;7.276;2022-12-18T11:31:25;0.90;59.20
19947;DHT22;10135;50.702;7.276;2022-12-18T11:33:31;1.00;59.40
19947;DHT22;10135;50.702;7.276;2022-12-18T11:38:04;0.90;59.30
19947;DHT22;10135;50.702;7.276;2022-12-18T11:40:20;0.90;59.20
19947;DHT22;10135;50.702;7.276;2022-12-18T11:42:51;0.90;59.20
19947;DHT22;10135;50.702;7.276;2022-12-18T11:45:02;0.90;59.20
19947;DHT22;10135;50.702;7.276;2022-12-18T11:49:41;0.90;59.20
19947;DHT22;10135;50.702;7.276;2022-12-18T11:51:58;0.90;59.30
19947;DHT22;10135;50.702;7.276;2022-12-18T11:54:12;0.90;59.20
19947;DHT22;10135;50.702;7.276;2022-12-18T11:56:34;0.90;59.20
19947;DHT22;10135;50.702;7.276;2022-12-18T11:59:27;0.90;59.30
19947;DHT22;10135;50.702;7.276;2022-12-18T12:01:48;0.90;59.20
19947;DHT22;10135;50.702;7.276;2022-12-18T12:04:17;0.90;59.20
19947;DHT22;10135;50.702;7.276;2022-12-18T12:14:45;0.90;59.30
19947;DHT22;10135;50.702;7.276;2022-12-18T12:17:22;0.90;59.30
19947;DHT22;10135;50.702;7.276;2022-12-18T12:32:26;1.00;59.30
19947;DHT22;10135;50.702;7.276;2022-12-18T12:34:55;1.00;59.30
19947;DHT22;10135;50.702;7.276;2022-12-18T12:39:42;1.10;59.40
19947;DHT22;10135;50.702;7.276;2022-12-18T12:41:46;1.00;59.30
19947;DHT22;10135;50.702;7.276;2022-12-18T12:44:08;1.00;59.40
19947;DHT22;10135;50.702;7.276;2022-12-18T12:46:21;1.10;59.40
19947;DHT22;10135;50.702;7.276;2022-12-18T12:50:35;1.10;59.30
19947;DHT22;10135;50.702;7.276;2022-12-18T12:52:41;1.10;59.40
19947;DHT22;10135;50.702;7.276;2022-12-18T12:54:44;1.10;59.40
19947;DHT22;10135;50.702;7.276;2022-12-18T12:57:08;1.10;59.40
19947;DHT22;10135;50.702;7.276;2022-12-18T12:59:30;1.20;59.40
19947;DHT22;10135;50.702;7.276;2022-12-18T13:08:58;1.20;59.30
19947;DHT22;10135;50.702;7.276;2022-12-18T13:11:00;1.30;59.40
19947;DHT22;10135;50.702;7.276;2022-12-18T13:13:19;1.30;59.40
19947;DHT22;10135;50.702;7.276;2022-12-18T13:17:34;1.30;59.40
19947;DHT22;10135;50.702;7.276;2022-12-18T13:19:35;1.30;59.40
19947;DHT22;10135;50.702;7.276;2022-12-18T13:21:35;1.30;59.40
19947;DHT22;10135;50.702;7.276;2022-12-18T13:23:37;1.30;59.30
19947;DHT22;10135;50.702;7.276;2022-12-18T13:25:39;1.40;59.40
19947;DHT22;10135;50.702;7.276;2022-12-18T13:28:00;1.30;59.30
19947;DHT22;10135;50.702;7.276;2022-12-18T13:30:45;1.40;59.30
19947;DHT22;10135;50.702;7.276;2022-12-18T13:32:45;1.40;59.30
19947;DHT22;10135;50.702;7.276;2022-12-18T13:34:46;1.40;59.40
19947;DHT22;10135;50.702;7.276;2022-12-18T13:36:49;1.40;59.40
19947;DHT22;10135;50.702;7.276;2022-12-18T13:41:26;1.50;59.20
19947;DHT22;10135;50.702;7.276;2022-12-18T13:43:44;1.50;59.20
19947;DHT22;10135;50.702;7.276;2022-12-18T13:45:59;1.50;59.20
19947;DHT22;10135;50.702;7.276;2022-12-18T13:48:21;1.50;59.20
19947;DHT22;10135;50.702;7.276;2022-12-18T13:50:25;1.50;59.30
19947;DHT22;10135;50.702;7.276;2022-12-18T13:52:28;1.50;59.30
19947;DHT22;10135;50.702;7.276;2022-12-18T13:54:37;1.50;59.20
19947;DHT22;10135;50.702;7.276;2022-12-18T13:56:44;1.50;59.20
19947;DHT22;10135;50.702;7.276;2022-12-18T13:59:36;1.50;59.30
19947;DHT22;10135;50.702;7.276;2022-12-18T14:01:44;1.50;59.10
19947;DHT22;10135;50.702;7.276;2022-12-18T14:03:46;1.50;59.20
19947;DHT22;10135;50.702;7.276;2022-12-18T14:05:53;1.50;59.20
19947;DHT22;10135;50.702;7.276;2022-12-18T14:08:08;1.50;59.30
19947;DHT22;10135;50.702;7.276;2022-12-18T14:10:13;1.50;59.20
19947;DHT22;10135;50.702;7.276;2022-12-18T14:12:20;1.50;59.20
19947;DHT22;10135;50.702;7.276;2022-12-18T14:14:47;1.50;59.20
19947;DHT22;10135;50.702;7.276;2022-12-18T14:16:51;1.60;59.30
19947;DHT22;10135;50.702;7.276;2022-12-18T14:18:54;1.60;59.20
19947;DHT22;10135;50.702;7.276;2022-12-18T14:20:59;1.60;59.20
19947;DHT22;10135;50.702;7.276;2022-12-18T14:23:01;1.50;59.20
19947;DHT22;10135;50.702;7.276;2022-12-18T14:27:24;1.50;59.10
19947;DHT22;10135;50.702;7.276;2022-12-18T14:29:27;1.50;59.10
19947;DHT22;10135;50.702;7.276;2022-12-18T14:31:30;1.50;59.10
19947;DHT22;10135;50.702;7.276;2022-12-18T14:33:32;1.50;59.20
19947;DHT22;10135;50.702;7.276;2022-12-18T14:35:37;1.50;59.20
19947;DHT22;10135;50.702;7.276;2022-12-18T14:37:39;1.50;59.20
19947;DHT22;10135;50.702;7.276;2022-12-18T14:39:40;1.50;59.20
19947;DHT22;10135;50.702;7.276;2022-12-18T14:41:52;1.50;59.20
19947;DHT22;10135;50.702;7.276;2022-12-18T14:43:54;1.40;59.10
19947;DHT22;10135;50.702;7.276;2022-12-18T14:45:55;1.50;59.20
19947;DHT22;10135;50.702;7.276;2022-12-18T14:47:59;1.40;59.20
19947;DHT22;10135;50.702;7.276;2022-12-18T14:50:00;1.40;59.20
19947;DHT22;10135;50.702;7.276;2022-12-18T14:52:03;1.40;59.20
19947;DHT22;10135;50.702;7.276;2022-12-18T14:54:16;1.40;59.20
19947;DHT22;10135;50.702;7.276;2022-12-18T14:58:21;1.40;59.20
19947;DHT22;10135;50.702;7.276;2022-12-18T15:00:24;1.30;59.10
19947;DHT22;10135;50.702;7.276;2022-12-18T15:02:27;1.30;59.20
19947;DHT22;10135;50.702;7.276;2022-12-18T15:04:40;1.20;59.10
19947;DHT22;10135;50.702;7.276;2022-12-18T15:06:41;1.30;59.10
19947;DHT22;10135;50.702;7.276;2022-12-18T15:08:43;1.20;59.10
19947;DHT22;10135;50.702;7.276;2022-12-18T15:10:47;1.20;59.10
19947;DHT22;10135;50.702;7.276;2022-12-18T15:14:51;1.20;59.20
19947;DHT22;10135;50.702;7.276;2022-12-18T15:16:53;1.10;59.10
19947;DHT22;10135;50.702;7.276;2022-12-18T15:18:54;1.20;59.20
19947;DHT22;10135;50.702;7.276;2022-12-18T15:20:57;1.10;59.10
19947;DHT22;10135;50.702;7.276;2022-12-18T15:23:28;1.10;59.20
19947;DHT22;10135;50.702;7.276;2022-12-18T15:25:36;1.10;59.10
19947;DHT22;10135;50.702;7.276;2022-12-18T15:27:38;1.10;59.20
19947;DHT22;10135;50.702;7.276;2022-12-18T15:29:38;1.10;59.30
19947;DHT22;10135;50.702;7.276;2022-12-18T15:31:40;1.10;59.20
19947;DHT22;10135;50.702;7.276;2022-12-18T15:33:49;1.00;59.20
19947;DHT22;10135;50.702;7.276;2022-12-18T15:36:14;1.10;59.30
19947;DHT22;10135;50.702;7.276;2022-12-18T15:38:16;1.10;59.30
19947;DHT22;10135;50.702;7.276;2022-12-18T15:40:19;1.10;59.30
19947;DHT22;10135;50.702;7.276;2022-12-18T15:42:24;1.10;59.30
19947;DHT22;10135;50.702;7.276;2022-12-18T15:44:43;1.10;59.30
19947;DHT22;10135;50.702;7.276;2022-12-18T15:46:44;1.10;59.30
19947;DHT22;10135;50.702;7.276;2022-12-18T15:48:50;1.00;59.30
19947;DHT22;10135;50.702;7.276;2022-12-18T15:50:53;1.00;59.30
19947;DHT22;10135;50.702;7.276;2022-12-18T15:52:57;1.10;59.30
19947;DHT22;10135;50.702;7.276;2022-12-18T15:54:57;1.10;59.30
19947;DHT22;10135;50.702;7.276;2022-12-18T15:57:17;1.00;59.30
19947;DHT22;10135;50.702;7.276;2022-12-18T15:59:23;1.00;59.30
19947;DHT22;10135;50.702;7.276;2022-12-18T16:01:26;1.00;59.30
19947;DHT22;10135;50.702;7.276;2022-12-18T16:03:29;1.00;59.30
19947;DHT22;10135;50.702;7.276;2022-12-18T16:05:31;1.00;59.30
19947;DHT22;10135;50.702;7.276;2022-12-18T16:07:31;1.00;59.30
19947;DHT22;10135;50.702;7.276;2022-12-18T16:09:32;1.00;59.30
19947;DHT22;10135;50.702;7.276;2022-12-18T16:11:34;1.00;59.30
19947;DHT22;10135;50.702;7.276;2022-12-18T16:13:40;1.00;59.30
19947;DHT22;10135;50.702;7.276;2022-12-18T16:15:41;1.00;59.30
19947;DHT22;10135;50.702;7.276;2022-12-18T16:17:46;0.90;59.30
19947;DHT22;10135;50.702;7.276;2022-12-18T16:19:48;0.90;59.30
19947;DHT22;10135;50.702;7.276;2022-12-18T16:21:51;0.90;59.30
19947;DHT22;10135;50.702;7.276;2022-12-18T16:23:53;0.90;59.30
19947;DHT22;10135;50.702;7.276;2022-12-18T16:25:53;0.90;59.30
19947;DHT22;10135;50.702;7.276;2022-12-18T16:27:55;0.90;59.30
19947;DHT22;10135;50.702;7.276;2022-12-18T16:29:56;0.90;59.30
19947;DHT22;10135;50.702;7.276;2022-12-18T16:31:58;0.90;59.30
19947;DHT22;10135;50.702;7.276;2022-12-18T16:34:21;0.90;59.30
19947;DHT22;10135;50.702;7.276;2022-12-18T16:36:26;0.90;59.30
19947;DHT22;10135;50.702;7.276;2022-12-18T16:38:26;0.90;59.30
19947;DHT22;10135;50.702;7.276;2022-12-18T16:40:27;0.90;59.30
19947;DHT22;10135;50.702;7.276;2022-12-18T16:42:27;0.90;59.30
19947;DHT22;10135;50.702;7.276;2022-12-18T16:44:28;0.90;59.30
19947;DHT22;10135;50.702;7.276;2022-12-18T16:46:29;0.90;59.30
19947;DHT22;10135;50.702;7.276;2022-12-18T16:48:30;0.90;59.30
19947;DHT22;10135;50.702;7.276;2022-12-18T16:50:31;0.80;59.30
19947;DHT22;10135;50.702;7.276;2022-12-18T16:52:32;0.80;59.40
19947;DHT22;10135;50.702;7.276;2022-12-18T16:54:33;0.80;59.30
19947;DHT22;10135;50.702;7.276;2022-12-18T16:56:36;0.80;59.30
19947;DHT22;10135;50.702;7.276;2022-12-18T16:58:37;0.80;59.30
19947;DHT22;10135;50.702;7.276;2022-12-18T17:00:37;0.80;59.30
19947;DHT22;10135;50.702;7.276;2022-12-18T17:02:38;0.80;59.30
19947;DHT22;10135;50.702;7.276;2022-12-18T17:04:39;0.80;59.30
19947;DHT22;10135;50.702;7.276;2022-12-18T17:06:42;0.80;59.30
19947;DHT22;10135;50.702;7.276;2022-12-18T17:08:44;0.80;59.40
19947;DHT22;10135;50.702;7.276;2022-12-18T17:10:44;0.80;59.30
19947;DHT22;10135;50.702;7.276;2022-12-18T17:12:45;0.80;59.30
19947;DHT22;10135;50.702;7.276;2022-12-18T17:14:46;0.80;59.30
19947;DHT22;10135;50.702;7.276;2022-12-18T17:16:46;0.80;59.40
19947;DHT22;10135;50.702;7.276;2022-12-18T17:18:47;0.80;60.00
19947;DHT22;10135;50.702;7.276;2022-12-18T17:20:48;0.80;59.40
19947;DHT22;10135;50.702;7.276;2022-12-18T17:22:49;0.80;59.40
19947;DHT22;10135;50.702;7.276;2022-12-18T17:24:50;0.80;59.30
19947;DHT22;10135;50.702;7.276;2022-12-18T17:26:50;0.80;59.30
19947;DHT22;10135;50.702;7.276;2022-12-18T17:28:51;0.80;59.30
19947;DHT22;10135;50.702;7.276;2022-12-18T17:30:53;0.80;59.50
19947;DHT22;10135;50.702;7.276;2022-12-18T17:32:54;0.80;59.40
19947;DHT22;10135;50.702;7.276;2022-12-18T17:34:54;0.80;59.30
19947;DHT22;10135;50.702;7.276;2022-12-18T17:36:55;0.80;59.30
19947;DHT22;10135;50.702;7.276;2022-12-18T17:38:57;0.80;59.40
19947;DHT22;10135;50.702;7.276;2022-12-18T17:41:04;0.80;59.30
19947;DHT22;10135;50.702;7.276;2022-12-18T17:43:08;0.80;59.30
19947;DHT22;10135;50.702;7.276;2022-12-18T17:45:10;0.80;59.30
19947;DHT22;10135;50.702;7.276;2022-12-18T17:47:12;0.80;59.90
19947;DHT22;10135;50.702;7.276;2022-12-18T17:49:13;0.80;59.30
19947;DHT22;10135;50.702;7.276;2022-12-18T17:51:15;0.80;59.30
19947;DHT22;10135;50.702;7.276;2022-12-18T17:53:16;0.80;59.30
19947;DHT22;10135;50.702;7.276;2022-12-18T17:55:17;0.70;59.20
19947;DHT22;10135;50.702;7.276;2022-12-18T17:57:18;0.70;59.30
19947;DHT22;10135;50.702;7.276;2022-12-18T17:59:18;0.70;59.30
19947;DHT22;10135;50.702;7.276;2022-12-18T18:01:22;0.70;59.30
19947;DHT22;10135;50.702;7.276;2022-12-18T18:03:24;0.70;59.30
19947;DHT22;10135;50.702;7.276;2022-12-18T18:05:25;0.70;59.30
19947;DHT22;10135;50.702;7.276;2022-12-18T18:07:26;0.70;59.30
19947;DHT22;10135;50.702;7.276;2022-12-18T18:09:27;0.70;59.40
19947;DHT22;10135;50.702;7.276;2022-12-18T18:11:28;0.60;59.30
19947;DHT22;10135;50.702;7.276;2022-12-18T18:13:47;0.70;59.40
19947;DHT22;10135;50.702;7.276;2022-12-18T18:16:03;0.70;59.40
19947;DHT22;10135;50.702;7.276;2022-12-18T18:18:05;0.70;59.40
19947;DHT22;10135;50.702;7.276;2022-12-18T18:20:06;0.70;59.40
19947;DHT22;10135;50.702;7.276;2022-12-18T18:22:07;0.70;59.30
19947;DHT22;10135;50.702;7.276;2022-12-18T18:24:08;0.70;59.30
19947;DHT22;10135;50.702;7.276;2022-12-18T18:26:10;0.70;59.50
19947;DHT22;10135;50.702;7.276;2022-12-18T18:28:11;0.70;59.40
19947;DHT22;10135;50.702;7.276;2022-12-18T18:30:12;0.70;59.40
19947;DHT22;10135;50.702;7.276;2022-12-18T18:32:13;0.70;59.40
19947;DHT22;10135;50.702;7.276;2022-12-18T18:34:15;0.70;59.50
19947;DHT22;10135;50.702;7.276;2022-12-18T18:36:22;0.70;59.40
19947;DHT22;10135;50.702;7.276;2022-12-18T18:38:23;0.70;59.40
19947;DHT22;10135;50.702;7.276;2022-12-18T18:40:24;0.70;59.40
19947;DHT22;10135;50.702;7.276;2022-12-18T18:42:24;0.80;59.60
19947;DHT22;10135;50.702;7.276;2022-12-18T18:44:25;0.80;59.50
19947;DHT22;10135;50.702;7.276;2022-12-18T18:46:26;0.70;59.50
19947;DHT22;10135;50.702;7.276;2022-12-18T18:48:29;0.80;59.50
19947;DHT22;10135;50.702;7.276;2022-12-18T18:50:31;0.80;60.20
19947;DHT22;10135;50.702;7.276;2022-12-18T18:52:32;0.80;59.50
19947;DHT22;10135;50.702;7.276;2022-12-18T18:54:33;0.80;59.50
19947;DHT22;10135;50.702;7.276;2022-12-18T18:56:33;0.90;59.60
19947;DHT22;10135;50.702;7.276;2022-12-18T18:58:34;0.90;59.50
19947;DHT22;10135;50.702;7.276;2022-12-18T19:00:35;0.90;59.50
19947;DHT22;10135;50.702;7.276;2022-12-18T19:02:36;0.80;59.40
19947;DHT22;10135;50.702;7.276;2022-12-18T19:04:36;0.90;59.50
19947;DHT22;10135;50.702;7.276;2022-12-18T19:06:38;0.90;59.50
19947;DHT22;10135;50.702;7.276;2022-12-18T19:08:39;0.90;59.50
19947;DHT22;10135;50.702;7.276;2022-12-18T19:10:39;0.90;59.50
19947;DHT22;10135;50.702;7.276;2022-12-18T19:12:41;0.90;59.50
19947;DHT22;10135;50.702;7.276;2022-12-18T19:15:00;0.90;59.50
19947;DHT22;10135;50.702;7.276;2022-12-18T19:17:00;0.90;59.50
19947;DHT22;10135;50.702;7.276;2022-12-18T19:19:01;0.90;59.50
19947;DHT22;10135;50.702;7.276;2022-12-18T19:21:04;0.90;59.60
19947;DHT22;10135;50.702;7.276;2022-12-18T19:23:06;1.00;60.20
19947;DHT22;10135;50.702;7.276;2022-12-18T19:25:07;1.00;59.60
19947;DHT22;10135;50.702;7.276;2022-12-18T19:27:08;1.00;59.60
19947;DHT22;10135;50.702;7.276;2022-12-18T19:29:10;1.00;59.60
19947;DHT22;10135;50.702;7.276;2022-12-18T19:31:13;1.00;59.60
19947;DHT22;10135;50.702;7.276;2022-12-18T19:33:16;1.00;59.50
19947;DHT22;10135;50.702;7.276;2022-12-18T19:35:16;1.10;59.50
19947;DHT22;10135;50.702;7.276;2022-12-18T19:37:17;1.10;59.50
19947;DHT22;10135;50.702;7.276;2022-12-18T19:39:18;1.10;59.60
19947;DHT22;10135;50.702;7.276;2022-12-18T19:41:19;1.10;59.50
19947;DHT22;10135;50.702;7.276;2022-12-18T19:43:21;1.20;59.60
19947;DHT22;10135;50.702;7.276;2022-12-18T19:45:21;1.20;59.60
19947;DHT22;10135;50.702;7.276;2022-12-18T19:47:22;1.20;59.50
19947;DHT22;10135;50.702;7.276;2022-12-18T19:49:23;1.10;59.40
19947;DHT22;10135;50.702;7.276;2022-12-18T19:51:25;1.20;59.50
19947;DHT22;10135;50.702;7.276;2022-12-18T19:53:27;1.20;59.50
19947;DHT22;10135;50.702;7.276;2022-12-18T19:55:28;1.20;59.50
19947;DHT22;10135;50.702;7.276;2022-12-18T19:57:28;1.20;59.60
19947;DHT22;10135;50.702;7.276;2022-12-18T19:59:31;1.30;59.60
19947;DHT22;10135;50.702;7.276;2022-12-18T20:01:32;1.20;59.50
19947;DHT22;10135;50.702;7.276;2022-12-18T20:03:34;1.30;59.60
19947;DHT22;10135;50.702;7.276;2022-12-18T20:05:34;1.30;59.60
19947;DHT22;10135;50.702;7.276;2022-12-18T20:07:35;1.30;59.60
19947;DHT22;10135;50.702;7.276;2022-12-18T20:09:36;1.40;59.60
19947;DHT22;10135;50.702;7.276;2022-12-18T20:11:37;1.40;60.30
19947;DHT22;10135;50.702;7.276;2022-12-18T20:13:37;1.40;59.60
19947;DHT22;10135;50.702;7.276;2022-12-18T20:15:38;1.40;60.30
19947;DHT22;10135;50.702;7.276;2022-12-18T20:17:39;1.50;59.70
19947;DHT22;10135;50.702;7.276;2022-12-18T20:19:39;1.50;59.70
19947;DHT22;10135;50.702;7.276;2022-12-18T20:21:41;1.50;59.60
19947;DHT22;10135;50.702;7.276;2022-12-18T20:23:41;1.50;59.60
19947;DHT22;10135;50.702;7.276;2022-12-18T20:25:42;1.60;59.60
19947;DHT22;10135;50.702;7.276;2022-12-18T20:27:43;1.60;59.70
19947;DHT22;10135;50.702;7.276;2022-12-18T20:29:44;1.60;59.60
19947;DHT22;10135;50.702;7.276;2022-12-18T20:31:44;1.60;59.60
19947;DHT22;10135;50.702;7.276;2022-12-18T20:33:45;1.70;59.60
19947;DHT22;10135;50.702;7.276;2022-12-18T20:35:46;1.70;59.70
19947;DHT22;10135;50.702;7.276;2022-12-18T20:37:46;1.70;59.70
19947;DHT22;10135;50.702;7.276;2022-12-18T20:39:47;1.70;59.60
19947;DHT22;10135;50.702;7.276;2022-12-18T20:41:48;1.70;59.60
19947;DHT22;10135;50.702;7.276;2022-12-18T20:43:50;1.70;59.50
19947;DHT22;10135;50.702;7.276;2022-12-18T20:45:59;1.70;59.50
19947;DHT22;10135;50.702;7.276;2022-12-18T20:48:01;1.70;59.60
19947;DHT22;10135;50.702;7.276;2022-12-18T20:50:03;1.80;59.60